createdAt,value
2019-05-13T00:00:47.168Z,77.23
2019-05-13T00:01:59.151Z,78.18
2019-05-13T00:03:09.668Z,78.56
2019-05-13T00:04:21.225Z,78.27
2019-05-13T00:05:33.817Z,78.27
2019-05-13T00:06:57.685Z,78.08
2019-05-13T00:08:10.052Z,78.18
2019-05-13T00:09:26.971Z,78.08
2019-05-13T00:10:39.238Z,78.37
2019-05-13T00:11:51.260Z,79.32
2019-05-13T00:13:03.648Z,79.41
2019-05-13T00:14:15.921Z,79.6
2019-05-13T00:15:26.840Z,79.41
2019-05-13T00:16:39.448Z,79.69
2019-05-13T00:17:54.323Z,80.83
2019-05-13T00:19:06.726Z,81.4
2019-05-13T00:20:17.180Z,81.87
2019-05-13T00:21:29.334Z,82.34
2019-05-13T00:22:41.525Z,82.53
2019-05-13T00:23:53.427Z,82.44
2019-05-13T00:25:04.113Z,82.82
2019-05-13T00:26:16.449Z,82.34
2019-05-13T00:27:27.320Z,82.06
2019-05-13T00:28:39.072Z,81.68
2019-05-13T00:29:49.373Z,81.49
2019-05-13T00:31:03.261Z,81.3
2019-05-13T00:32:15.861Z,80.93
2019-05-13T00:33:26.933Z,81.12
2019-05-13T00:34:39.222Z,80.79
2019-05-13T00:35:53.396Z,81.17
2019-05-13T00:37:14.495Z,80.88
2019-05-13T00:38:26.922Z,80.79
2019-05-13T00:39:38.860Z,80.41
2019-05-13T00:40:49.515Z,80.51
2019-05-13T00:42:03.952Z,80.04
2019-05-13T00:43:16.620Z,79.75
2019-05-13T00:44:27.417Z,79.56
2019-05-13T00:45:39.086Z,79.09
2019-05-13T00:46:49.615Z,79.47
2019-05-13T00:48:01.373Z,79.56
2019-05-13T00:49:13.385Z,80.6
2019-05-13T00:50:24.048Z,80.13
2019-05-13T00:51:36.436Z,79.75
2019-05-13T00:52:47.522Z,79.18
2019-05-13T00:53:58.920Z,79.56
2019-05-13T00:55:14.623Z,80.04
2019-05-13T00:56:26.686Z,80.04
2019-05-13T00:57:37.412Z,79.88
2019-05-13T00:58:49.044Z,80.07
2019-05-13T00:59:59.187Z,79.79
2019-05-13T01:01:11.174Z,80.36
2019-05-13T01:02:21.607Z,80.93
2019-05-13T01:03:33.768Z,80.93
2019-05-13T01:04:44.227Z,81.02
2019-05-13T01:05:56.409Z,80.79
2019-05-13T01:07:15.369Z,81.59
2019-05-13T01:08:36.997Z,81.77
2019-05-13T01:09:49.136Z,81.74
2019-05-13T01:11:01.078Z,81.49
2019-05-13T01:12:13.358Z,81.96
2019-05-13T01:13:23.810Z,82.63
2019-05-13T01:14:35.949Z,82.72
2019-05-13T01:15:46.837Z,82.25
2019-05-13T01:16:57.330Z,82.72
2019-05-13T01:18:09.193Z,82.34
2019-05-13T01:19:23.663Z,83.1
2019-05-13T01:20:34.362Z,82.44
2019-05-13T01:21:46.636Z,82.53
2019-05-13T01:22:59.165Z,82.53
2019-05-13T01:24:14.160Z,82.63
2019-05-13T01:25:26.855Z,81.59
2019-05-13T01:26:38.962Z,81.4
2019-05-13T01:27:53.598Z,81.87
2019-05-13T01:29:04.238Z,82.06
2019-05-13T01:30:16.365Z,81.68
2019-05-13T01:31:26.696Z,82.63
2019-05-13T01:32:37.222Z,83.48
2019-05-13T01:33:49.918Z,82.91
2019-05-13T01:35:01.236Z,83.67
2019-05-13T01:36:13.358Z,83.48
2019-05-13T01:37:39.011Z,83.29
2019-05-13T01:38:54.034Z,82.91
2019-05-13T01:40:05.043Z,83.48
2019-05-13T01:41:16.511Z,84.05
2019-05-13T01:42:26.954Z,84.14
2019-05-13T01:43:38.908Z,83.29
2019-05-13T01:44:49.090Z,83.39
2019-05-13T01:46:01.464Z,82.44
2019-05-13T01:47:13.403Z,82.15
2019-05-13T01:48:24.013Z,83.01
2019-05-13T01:49:36.336Z,83.1
2019-05-13T01:50:47.142Z,83.29
2019-05-13T01:51:58.584Z,83.48
2019-05-13T01:53:11.040Z,83.2
2019-05-13T01:54:24.463Z,83.58
2019-05-13T01:55:36.877Z,83.29
2019-05-13T01:56:49.407Z,83.67
2019-05-13T01:58:03.828Z,83.58
2019-05-13T01:59:15.143Z,83.01
2019-05-13T02:00:26.835Z,83.2
2019-05-13T02:01:38.400Z,83.29
2019-05-13T02:02:49.496Z,83.01
2019-05-13T02:04:03.885Z,83.86
2019-05-13T02:05:16.899Z,84.33
2019-05-13T02:06:27.094Z,84.14
2019-05-13T02:07:38.910Z,83.86
2019-05-13T02:09:07.332Z,84.05
2019-05-13T02:10:19.456Z,83.95
2019-05-13T02:11:29.805Z,84.14
2019-05-13T02:12:44.290Z,84.05
2019-05-13T02:13:56.603Z,83.67
2019-05-13T02:15:08.560Z,82.82
2019-05-13T02:16:19.834Z,82.63
2019-05-13T02:17:33.709Z,82.06
2019-05-13T02:18:44.374Z,81.59
2019-05-13T02:19:56.578Z,81.4
2019-05-13T02:21:09.054Z,81.59
2019-05-13T02:22:21.402Z,81.4
2019-05-13T02:23:33.968Z,81.49
2019-05-13T02:24:44.648Z,81.02
2019-05-13T02:25:57.061Z,80.74
2019-05-13T02:27:09.621Z,80.36
2019-05-13T02:28:24.301Z,80.64
2019-05-13T02:29:36.982Z,80.93
2019-05-13T02:30:48.892Z,81.21
2019-05-13T02:32:05.092Z,80.83
2019-05-13T02:33:18.812Z,80.93
2019-05-13T02:34:32.119Z,80.93
2019-05-13T02:35:46.310Z,81.87
2019-05-13T02:37:03.155Z,81.49
2019-05-13T02:38:30.017Z,81.4
2019-05-13T02:39:45.621Z,81.77
2019-05-13T02:40:58.307Z,82.86
2019-05-13T02:42:13.181Z,83.2
2019-05-13T02:43:26.739Z,84.33
2019-05-13T02:44:38.670Z,85.04
2019-05-13T02:45:53.095Z,84.9
2019-05-13T02:47:06.940Z,84.9
2019-05-13T02:48:23.213Z,85.57
2019-05-13T02:49:36.058Z,85.57
2019-05-13T02:50:48.330Z,84.81
2019-05-13T02:52:02.719Z,84.71
2019-05-13T02:53:16.264Z,83.86
2019-05-13T02:54:29.240Z,83.43
2019-05-13T02:55:46.276Z,82.95
2019-05-13T02:56:57.784Z,82.57
2019-05-13T02:58:14.829Z,82.1
2019-05-13T02:59:29.154Z,81.15
2019-05-13T03:00:44.030Z,80.58
2019-05-13T03:01:58.351Z,80.02
2019-05-13T03:03:15.353Z,80.3
2019-05-13T03:04:28.519Z,80.58
2019-05-13T03:05:42.778Z,80.4
2019-05-13T03:06:55.489Z,80.11
2019-05-13T03:08:08.111Z,80.11
2019-05-13T03:09:55.257Z,80.11
2019-05-13T03:11:12.335Z,79.93
2019-05-13T03:12:25.728Z,79.83
2019-05-13T03:13:37.616Z,80.4
2019-05-13T03:14:53.224Z,81.15
2019-05-13T03:16:05.871Z,81.44
2019-05-13T03:17:22.015Z,81.63
2019-05-13T03:18:36.096Z,81.34
2019-05-13T03:19:48.499Z,81.82
2019-05-13T03:21:03.252Z,81.25
2019-05-13T03:22:16.159Z,82.01
2019-05-13T03:23:27.681Z,82.67
2019-05-13T03:24:42.920Z,82.1
2019-05-13T03:25:56.390Z,81.92
2019-05-13T03:27:08.224Z,82.29
2019-05-13T03:28:28.115Z,82.76
2019-05-13T03:29:43.146Z,82.29
2019-05-13T03:31:05.158Z,82.48
2019-05-13T03:32:45.874Z,82.57
2019-05-13T03:34:34.773Z,82.86
2019-05-13T03:35:55.610Z,83.05
2019-05-13T03:37:25.335Z,82.57
2019-05-13T03:39:06.795Z,82.86
2019-05-13T03:40:25.909Z,82.76
2019-05-13T03:41:38.337Z,82.95
2019-05-13T03:42:53.206Z,82.48
2019-05-13T03:44:05.529Z,82.1
2019-05-13T03:45:21.661Z,81.44
2019-05-13T03:46:35.865Z,80.77
2019-05-13T03:47:47.827Z,81.34
2019-05-13T03:49:02.338Z,80.87
2019-05-13T03:50:16.344Z,81.63
2019-05-13T03:51:28.080Z,82.67
2019-05-13T03:52:43.006Z,83.05
2019-05-13T03:53:56.121Z,83.05
2019-05-13T03:55:08.402Z,83.9
2019-05-13T03:56:23.470Z,83.71
2019-05-13T03:57:36.430Z,84.38
2019-05-13T03:58:47.888Z,84.28
2019-05-13T04:00:03.424Z,84.19
2019-05-13T04:01:16.260Z,84
2019-05-13T04:02:27.667Z,85.04
2019-05-13T04:03:43.398Z,84.75
2019-05-13T04:04:58.875Z,85.23
2019-05-13T04:06:15.700Z,86.36
2019-05-13T04:07:28.673Z,86.46
2019-05-13T04:08:42.898Z,86.93
2019-05-13T04:09:56.661Z,86.18
2019-05-13T04:11:12.190Z,86.27
2019-05-13T04:12:32.914Z,86.18
2019-05-13T04:13:45.624Z,86.55
2019-05-13T04:14:57.979Z,86.18
2019-05-13T04:16:12.667Z,86.65
2019-05-13T04:17:26.984Z,86.55
2019-05-13T04:18:42.256Z,85.99
2019-05-13T04:19:55.388Z,86.46
2019-05-13T04:21:08.134Z,86.74
2019-05-13T04:22:22.977Z,86.55
2019-05-13T04:23:36.161Z,85.8
2019-05-13T04:24:47.875Z,86.08
2019-05-13T04:26:02.920Z,86.27
2019-05-13T04:27:15.769Z,86.18
2019-05-13T04:28:28.638Z,85.89
2019-05-13T04:29:43.147Z,86.36
2019-05-13T04:30:55.648Z,86.36
2019-05-13T04:32:08.841Z,86.08
2019-05-13T04:33:22.880Z,86.46
2019-05-13T04:34:36.641Z,85.7
2019-05-13T04:35:52.541Z,86.74
2019-05-13T04:37:05.505Z,87.5
2019-05-13T04:38:18.557Z,86.65
2019-05-13T04:39:50.838Z,85.51
2019-05-13T04:41:06.767Z,85.42
2019-05-13T04:42:22.739Z,85.65
2019-05-13T04:43:37.339Z,85.42
2019-05-13T04:44:53.176Z,85.93
2019-05-13T04:46:05.955Z,85.36
2019-05-13T04:47:22.527Z,84.8
2019-05-13T04:48:39.372Z,84.23
2019-05-13T04:49:55.695Z,84.13
2019-05-13T04:51:08.273Z,83.66
2019-05-13T04:52:24.549Z,83.66
2019-05-13T04:53:37.217Z,83.66
2019-05-13T04:54:52.395Z,83.56
2019-05-13T04:56:06.224Z,83.28
2019-05-13T04:57:19.115Z,83.75
2019-05-13T04:58:32.162Z,83.56
2019-05-13T04:59:47.008Z,84.42
2019-05-13T05:01:13.935Z,84.23
2019-05-13T05:02:48.921Z,84.23
2019-05-13T05:04:23.760Z,83.47
2019-05-13T05:05:42.000Z,83.75
2019-05-13T05:06:55.474Z,83.66
2019-05-13T05:08:08.317Z,83.66
2019-05-13T05:09:22.196Z,83.94
2019-05-13T05:10:42.769Z,83.94
2019-05-13T05:12:01.793Z,84.13
2019-05-13T05:13:12.773Z,84.23
2019-05-13T05:14:25.003Z,83.94
2019-05-13T05:15:37.688Z,83.47
2019-05-13T05:16:52.064Z,83.47
2019-05-13T05:18:05.264Z,83.18
2019-05-13T05:19:16.891Z,82.43
2019-05-13T05:20:29.166Z,83.47
2019-05-13T05:21:41.712Z,83
2019-05-13T05:22:57.397Z,82.81
2019-05-13T05:24:11.173Z,83.47
2019-05-13T05:25:22.032Z,82.81
2019-05-13T05:26:35.180Z,82.81
2019-05-13T05:27:47.259Z,82.81
2019-05-13T05:29:01.907Z,83.47
2019-05-13T05:30:14.144Z,83
2019-05-13T05:31:25.583Z,83.47
2019-05-13T05:32:38.459Z,83.85
2019-05-13T05:33:51.578Z,85.36
2019-05-13T05:35:03.683Z,86.03
2019-05-13T05:36:14.727Z,86.22
2019-05-13T05:37:26.982Z,85.74
2019-05-13T05:38:38.898Z,85.27
2019-05-13T05:39:51.266Z,84.89
2019-05-13T05:41:01.713Z,84.89
2019-05-13T05:42:13.636Z,84.13
2019-05-13T05:43:24.844Z,83.56
2019-05-13T05:44:36.719Z,83.37
2019-05-13T05:45:47.420Z,82.66
2019-05-13T05:46:58.891Z,82.18
2019-05-13T05:48:11.833Z,81.29
2019-05-13T05:49:23.831Z,81.95
2019-05-13T05:50:34.923Z,81.81
2019-05-13T05:51:47.600Z,81.81
2019-05-13T05:52:59.115Z,80.67
2019-05-13T05:54:12.093Z,80.57
2019-05-13T05:55:24.801Z,80
2019-05-13T05:56:36.973Z,79.25
2019-05-13T05:57:49.003Z,78.87
2019-05-13T05:59:02.612Z,78.3
2019-05-13T06:00:15.244Z,78.58
2019-05-13T06:01:27.267Z,78.96
2019-05-13T06:02:42.467Z,78.96
2019-05-13T06:03:55.961Z,78.49
2019-05-13T06:05:06.969Z,78.39
2019-05-13T06:06:17.788Z,78.67
2019-05-13T06:07:32.315Z,77.25
2019-05-13T06:08:43.809Z,77.83
2019-05-13T06:09:54.525Z,78.11
2019-05-13T06:11:05.186Z,78.02
2019-05-13T06:12:16.926Z,77.64
2019-05-13T06:13:31.407Z,77.06
2019-05-13T06:14:42.266Z,76.21
2019-05-13T06:15:55.229Z,76.4
2019-05-13T06:17:07.100Z,76.97
2019-05-13T06:18:19.173Z,76.34
2019-05-13T06:19:31.755Z,75.93
2019-05-13T06:20:41.886Z,75.02
2019-05-13T06:21:54.152Z,74.92
2019-05-13T06:23:05.409Z,75.02
2019-05-13T06:24:16.776Z,74.73
2019-05-13T06:25:36.215Z,75.21
2019-05-13T06:26:48.066Z,74.92
2019-05-13T06:28:01.614Z,73.79
2019-05-13T06:29:14.000Z,73.97
2019-05-13T06:30:25.105Z,73.31
2019-05-13T06:31:37.713Z,73.31
2019-05-13T06:32:49.587Z,72.17
2019-05-13T06:34:02.028Z,71.98
2019-05-13T06:35:14.003Z,72.08
2019-05-13T06:36:24.730Z,71.98
2019-05-13T06:37:36.909Z,71.98
2019-05-13T06:38:51.063Z,71.22
2019-05-13T06:40:02.176Z,70.84
2019-05-13T06:41:16.834Z,71.8
2019-05-13T06:42:27.288Z,72.08
2019-05-13T06:43:41.775Z,72.64
2019-05-13T06:44:53.703Z,71.89
2019-05-13T06:46:04.779Z,70.84
2019-05-13T06:47:15.284Z,71.55
2019-05-13T06:48:27.247Z,70.88
2019-05-13T06:49:37.624Z,70.5
2019-05-13T06:50:52.049Z,70.59
2019-05-13T06:52:04.305Z,70.12
2019-05-13T06:53:15.249Z,69.17
2019-05-13T06:54:26.764Z,69.84
2019-05-13T06:55:38.396Z,69.36
2019-05-13T06:56:51.694Z,68.23
2019-05-13T06:58:04.478Z,69.65
2019-05-13T06:59:16.700Z,69.46
2019-05-13T07:00:27.594Z,69.27
2019-05-13T07:01:42.429Z,68.7
2019-05-13T07:02:54.438Z,69.55
2019-05-13T07:04:07.360Z,70.31
2019-05-13T07:05:19.243Z,70.78
2019-05-13T07:06:32.246Z,69.74
2019-05-13T07:07:44.953Z,67.94
2019-05-13T07:08:56.325Z,68.04
2019-05-13T07:10:06.526Z,68.04
2019-05-13T07:11:24.891Z,68.98
2019-05-13T07:12:36.826Z,68.7
2019-05-13T07:13:48.812Z,68.6
2019-05-13T07:14:59.045Z,68.41
2019-05-13T07:16:11.865Z,69.17
2019-05-13T07:17:24.637Z,69.65
2019-05-13T07:18:37.476Z,68.6
2019-05-13T07:19:51.382Z,68.23
2019-05-13T07:21:04.640Z,68.98
2019-05-13T07:22:15.425Z,69.08
2019-05-13T07:23:28.334Z,69.55
2019-05-13T07:24:41.305Z,69.93
2019-05-13T07:25:52.418Z,70.03
2019-05-13T07:27:04.862Z,69.49
2019-05-13T07:28:17.375Z,68.26
2019-05-13T07:29:32.020Z,67.79
2019-05-13T07:30:44.761Z,67.21
2019-05-13T07:31:56.851Z,67.12
2019-05-13T07:33:08.978Z,67.4
2019-05-13T07:34:24.434Z,67.97
2019-05-13T07:35:44.053Z,68.16
2019-05-13T07:37:05.968Z,70.06
2019-05-13T07:38:16.628Z,70.06
2019-05-13T07:39:27.549Z,69.21
2019-05-13T07:40:41.707Z,68.67
2019-05-13T07:41:52.118Z,67.44
2019-05-13T07:43:07.504Z,68.39
2019-05-13T07:44:22.083Z,66.83
2019-05-13T07:45:35.092Z,64.87
2019-05-13T07:46:47.781Z,64.87
2019-05-13T07:48:01.357Z,64.78
2019-05-13T07:49:34.890Z,65.25
2019-05-13T07:51:04.351Z,65.03
2019-05-13T07:52:17.017Z,65.16
2019-05-13T07:53:28.047Z,64.11
2019-05-13T07:54:41.938Z,64.65
2019-05-13T07:55:54.901Z,65.16
2019-05-13T07:57:07.267Z,64.21
2019-05-13T07:58:22.630Z,65.06
2019-05-13T07:59:41.664Z,64.11
2019-05-13T08:00:52.065Z,64.59
2019-05-13T08:02:04.865Z,64.78
2019-05-13T08:03:17.468Z,64.69
2019-05-13T08:04:29.316Z,64.21
2019-05-13T08:05:41.895Z,65.16
2019-05-13T08:06:54.976Z,66.3
2019-05-13T08:08:07.068Z,65.73
2019-05-13T08:09:21.557Z,65.35
2019-05-13T08:10:34.620Z,62.4
2019-05-13T08:12:09.775Z,63.54
2019-05-13T08:13:25.067Z,64.02
2019-05-13T08:14:36.810Z,63.92
2019-05-13T08:15:54.151Z,64.49
2019-05-13T08:17:07.130Z,64.14
2019-05-13T08:18:19.183Z,62.43
2019-05-13T08:19:32.115Z,62.34
2019-05-13T08:20:44.753Z,63.1
2019-05-13T08:21:57.696Z,63.01
2019-05-13T08:23:11.726Z,63.48
2019-05-13T08:24:25.186Z,63.39
2019-05-13T08:25:36.686Z,64.05
2019-05-13T08:26:53.189Z,63.86
2019-05-13T08:28:05.139Z,62.62
2019-05-13T08:29:17.625Z,62.75
2019-05-13T08:30:31.647Z,61.61
2019-05-13T08:31:43.729Z,61.99
2019-05-13T08:32:54.826Z,61.71
2019-05-13T08:34:07.074Z,61.71
2019-05-13T08:35:19.433Z,61.42
2019-05-13T08:36:32.458Z,61.23
2019-05-13T08:37:45.646Z,60.75
2019-05-13T08:38:57.344Z,60.28
2019-05-13T08:40:11.793Z,60.02
2019-05-13T08:41:26.358Z,60.41
2019-05-13T08:42:37.523Z,59.64
2019-05-13T08:43:49.164Z,58.79
2019-05-13T08:45:01.739Z,58.98
2019-05-13T08:46:14.973Z,59.17
2019-05-13T08:47:27.130Z,59.17
2019-05-13T08:48:39.014Z,58.25
2019-05-13T08:49:51.999Z,57.77
2019-05-13T08:51:06.784Z,57.01
2019-05-13T08:52:19.289Z,54.53
2019-05-13T08:53:31.540Z,52.53
2019-05-13T08:54:44.146Z,53.11
2019-05-13T08:55:55.393Z,51.01
2019-05-13T08:57:06.951Z,51.87
2019-05-13T08:58:21.098Z,53.87
2019-05-13T08:59:34.110Z,54.91
2019-05-13T09:00:45.133Z,55.58
2019-05-13T09:02:02.849Z,54.35
2019-05-13T09:03:14.643Z,50.63
2019-05-13T09:04:26.882Z,50.54
2019-05-13T09:05:41.285Z,49.96
2019-05-13T09:06:52.349Z,50.35
2019-05-13T09:08:04.901Z,52.72
2019-05-13T09:09:16.812Z,51.68
2019-05-13T09:10:27.291Z,51.87
2019-05-13T09:11:41.870Z,49.68
2019-05-13T09:12:54.746Z,51.01
2019-05-13T09:14:07.118Z,52.06
2019-05-13T09:15:18.919Z,51.39
2019-05-13T09:16:31.941Z,51.39
2019-05-13T09:17:44.988Z,50.44
2019-05-13T09:18:56.975Z,49.71
2019-05-13T09:20:11.537Z,47.87
2019-05-13T09:21:22.419Z,49.49
2019-05-13T09:22:34.703Z,47.68
2019-05-13T09:23:46.537Z,45.3
2019-05-13T09:24:58.566Z,47.11
2019-05-13T09:26:11.819Z,46.83
2019-05-13T09:27:24.767Z,47.87
2019-05-13T09:28:37.090Z,47.58
2019-05-13T09:29:51.525Z,48.13
2019-05-13T09:31:04.435Z,47.75
2019-05-13T09:32:15.545Z,48.23
2019-05-13T09:33:26.812Z,46.25
2019-05-13T09:34:37.906Z,45.85
2019-05-13T09:37:51.554Z,45.28
2019-05-13T09:39:04.427Z,44.26
2019-05-13T09:40:15.588Z,45.11
2019-05-13T09:41:27.633Z,44.92
2019-05-13T09:44:52.452Z,49.01
2019-05-13T09:46:05.116Z,48.73
2019-05-13T09:47:17.160Z,49.01
2019-05-13T09:48:35.136Z,48.73
2019-05-13T09:49:47.591Z,49.68
2019-05-13T09:51:02.020Z,50.25
2019-05-13T09:52:15.112Z,49.77
2019-05-13T09:53:27.719Z,49.8
2019-05-13T09:54:42.416Z,50.09
2019-05-13T09:55:55.328Z,49.04
2019-05-13T09:57:07.421Z,49.06
2019-05-13T09:58:21.907Z,48.3
2019-05-13T09:59:36.152Z,49.26
2019-05-13T10:00:47.519Z,49.44
2019-05-13T10:02:02.843Z,48.21
2019-05-13T10:03:16.505Z,48.39
2019-05-13T10:04:36.060Z,48.99
2019-05-13T10:05:51.450Z,48.52
2019-05-13T10:07:04.586Z,49.11
2019-05-13T10:08:17.420Z,49.11
2019-05-13T10:09:32.121Z,46.25
2019-05-13T10:10:44.841Z,46.47
2019-05-13T10:11:55.738Z,45.32
2019-05-13T10:15:07.918Z,45.13
2019-05-13T10:16:21.910Z,45.87
2019-05-13T10:17:34.227Z,47.2
2019-05-13T10:18:47.619Z,47.03
2019-05-13T10:19:59.884Z,46.18
2019-05-13T10:21:09.884Z,47.03
2019-05-13T10:22:21.833Z,47.32
2019-05-13T10:23:35.653Z,46.47
2019-05-13T10:24:47.302Z,47.03
2019-05-13T10:25:59.166Z,46.27
2019-05-13T10:27:12.155Z,46.47
2019-05-13T10:28:27.831Z,45.99
2019-05-13T10:29:42.399Z,45.34
2019-05-13T10:30:55.966Z,45.53
2019-05-13T10:32:07.521Z,45.34
2019-05-13T10:33:17.597Z,46.47
2019-05-13T10:34:32.016Z,46.58
2019-05-13T10:35:45.233Z,45.34
2019-05-13T10:36:57.804Z,45.72
2019-05-13T10:38:13.114Z,46.58
2019-05-13T10:39:26.474Z,45.25
2019-05-13T10:40:36.189Z,43.91
2019-05-13T10:41:48.650Z,44.2
2019-05-13T10:43:01.858Z,44.38
2019-05-13T10:44:32.736Z,42.29
2019-05-13T10:45:45.226Z,44.48
2019-05-13T10:46:58.050Z,43.72
2019-05-13T10:48:15.237Z,42.19
2019-05-13T10:49:27.322Z,40.28
2019-05-13T10:50:41.818Z,39.52
2019-05-13T10:51:54.995Z,40.64
2019-05-13T10:53:06.057Z,43.03
2019-05-13T10:54:17.566Z,44.37
2019-05-13T10:55:31.728Z,44.94
2019-05-13T10:56:45.323Z,45.34
2019-05-13T10:58:04.916Z,43.72
2019-05-13T10:59:17.529Z,43.05
2019-05-13T11:00:32.031Z,40.28
2019-05-13T11:01:45.161Z,41.24
2019-05-13T11:02:55.121Z,43.43
2019-05-13T11:04:05.287Z,43.53
2019-05-13T11:05:22.805Z,44.31
2019-05-13T11:06:35.899Z,41.45
2019-05-13T11:07:47.103Z,41.06
2019-05-13T11:09:02.000Z,40.2
2019-05-13T11:10:13.216Z,41.95
2019-05-13T11:11:25.153Z,42.52
2019-05-13T11:12:38.095Z,42.71
2019-05-13T11:14:09.980Z,43.76
2019-05-13T11:15:24.973Z,43.3
2019-05-13T11:16:51.308Z,43.02
2019-05-13T11:18:05.876Z,43.4
2019-05-13T11:19:37.036Z,41.51
2019-05-13T11:20:47.175Z,41.03
2019-05-13T11:21:57.141Z,40.26
2019-05-13T11:23:12.355Z,40.84
2019-05-13T11:24:25.948Z,40.65
2019-05-13T11:25:37.826Z,40.75
2019-05-13T11:26:49.281Z,41.13
2019-05-13T11:28:01.626Z,40.65
2019-05-13T11:29:14.400Z,40.67
2019-05-13T11:30:25.936Z,40.86
2019-05-13T11:31:37.241Z,40.19
2019-05-13T11:32:51.599Z,39.65
2019-05-13T11:34:04.394Z,39.29
2019-05-13T11:35:15.477Z,38.64
2019-05-13T11:36:28.436Z,37.8
2019-05-13T11:37:46.485Z,36.93
2019-05-13T11:38:57.634Z,36.38
2019-05-13T11:40:11.950Z,35.71
2019-05-13T11:41:25.178Z,35.63
2019-05-13T11:42:37.775Z,34.49
2019-05-13T11:44:16.599Z,34.31
2019-05-13T11:45:28.244Z,34.33
2019-05-13T11:46:42.017Z,34.43
2019-05-13T11:47:55.771Z,34.92
2019-05-13T11:49:07.916Z,32.81
2019-05-13T11:50:22.298Z,31.85
2019-05-13T11:53:37.571Z,29.35
2019-05-13T11:54:49.354Z,30.13
2019-05-13T11:56:03.503Z,30.73
2019-05-13T11:57:15.298Z,31.48
2019-05-13T11:58:25.717Z,31.09
2019-05-13T11:59:38.028Z,29.63
2019-05-13T12:00:53.032Z,28.47
2019-05-13T12:02:07.142Z,27.38
2019-05-13T12:03:22.970Z,29.93
2019-05-13T12:04:37.073Z,30.33
2019-05-13T12:05:53.679Z,29.96
2019-05-13T12:07:07.392Z,31.13
2019-05-13T12:08:22.653Z,31.35
2019-05-13T12:09:36.535Z,31.77
2019-05-13T12:10:46.646Z,30.16
2019-05-13T12:12:02.824Z,28.92
2019-05-13T12:13:16.424Z,25.18
2019-05-13T12:15:33.340Z,26.2
2019-05-13T12:17:02.161Z,26.84
2019-05-13T12:18:14.963Z,24.54
2019-05-13T12:19:28.718Z,28.64
2019-05-13T12:20:38.697Z,29.54
2019-05-13T12:21:53.939Z,30.04
2019-05-13T12:23:06.071Z,28.61
2019-05-13T12:24:18.375Z,24.65
2019-05-13T12:25:33.441Z,25.01
2019-05-13T12:26:46.708Z,25.56
2019-05-13T12:28:03.287Z,26.01
2019-05-13T12:29:21.276Z,28.79
2019-05-13T12:30:36.469Z,27.26
2019-05-13T12:31:52.316Z,28.59
2019-05-13T12:33:06.078Z,30.32
2019-05-13T12:34:18.529Z,30.23
2019-05-13T12:35:32.785Z,29.3
2019-05-13T12:36:45.911Z,27.97
2019-05-13T12:37:55.973Z,25.38
2019-05-13T12:39:05.989Z,25.1
2019-05-13T12:40:22.734Z,27.02
2019-05-13T12:41:36.841Z,27.81
2019-05-13T12:42:53.089Z,28.49
2019-05-13T12:44:04.971Z,29.29
2019-05-13T12:45:18.180Z,28.53
2019-05-13T12:46:30.134Z,28.72
2019-05-13T12:47:43.221Z,27.94
2019-05-13T12:48:56.066Z,27.37
2019-05-13T12:50:09.284Z,28.33
2019-05-13T12:51:22.585Z,28.91
2019-05-13T12:52:35.500Z,28.04
2019-05-13T12:53:49.105Z,27.87
2019-05-13T12:57:11.964Z,26.73
2019-05-13T12:58:26.522Z,25.99
2019-05-13T12:59:42.612Z,25.54
2019-05-13T13:00:55.872Z,25.65
2019-05-13T13:02:06.829Z,25.27
2019-05-13T13:03:23.094Z,24.43
2019-05-13T13:04:36.281Z,24.13
2019-05-13T13:06:40.522Z,23.66
2019-05-13T13:09:56.562Z,22.92
2019-05-13T13:11:06.724Z,22.74
2019-05-13T13:12:17.260Z,21.37
2019-05-13T13:14:10.286Z,21.75
2019-05-13T13:15:43.216Z,21.45
2019-05-13T13:16:58.272Z,22.2
2019-05-13T13:18:16.717Z,22.88
2019-05-13T13:19:27.687Z,22.88
2019-05-13T13:20:44.818Z,22.2
2019-05-13T13:22:17.459Z,22.6
2019-05-13T13:23:36.695Z,22.99
2019-05-13T13:24:57.177Z,22.41
2019-05-13T13:26:18.405Z,23.16
2019-05-13T13:28:10.960Z,23.54
2019-05-13T13:29:28.968Z,22.57
2019-05-13T13:30:44.072Z,22.67
2019-05-13T13:31:58.616Z,23.24
2019-05-13T13:33:14.868Z,23.63
2019-05-13T13:34:28.752Z,22.75
2019-05-13T13:35:54.929Z,22.84
2019-05-13T13:37:10.799Z,23.32
2019-05-13T13:38:27.641Z,23.12
2019-05-13T13:39:43.127Z,23.5
2019-05-13T13:40:58.121Z,23.42
2019-05-13T13:42:15.141Z,22.37
2019-05-13T13:43:27.589Z,22.66
2019-05-13T13:44:47.166Z,21.59
2019-05-13T13:46:42.179Z,21.99
2019-05-13T13:48:06.336Z,22.39
2019-05-13T13:49:23.006Z,21.92
2019-05-13T13:50:37.985Z,21.25
2019-05-13T13:51:58.573Z,21.06
2019-05-13T13:53:13.434Z,20.49
2019-05-13T13:54:29.073Z,20.5
2019-05-13T13:55:44.209Z,20.14
2019-05-13T13:56:58.997Z,20.42
2019-05-13T13:58:13.800Z,19.57
2019-05-13T13:59:28.590Z,20.06
2019-05-13T14:01:40.518Z,19.87
2019-05-13T14:02:54.048Z,19.6
2019-05-13T14:04:09.481Z,18.63
2019-05-13T14:05:27.337Z,19.8
2019-05-13T14:08:37.268Z,19.13
2019-05-13T14:09:51.143Z,18.35
2019-05-13T14:11:02.047Z,17.66
2019-05-13T14:12:14.609Z,17.27
2019-05-13T14:13:27.152Z,18.34
2019-05-13T14:14:37.743Z,16.78
2019-05-13T14:15:49.146Z,17.94
2019-05-13T14:17:02.389Z,17.65
2019-05-13T14:18:13.989Z,17.65
2019-05-13T14:19:32.167Z,18.44
2019-05-13T14:20:45.438Z,18.34
2019-05-13T14:21:58.068Z,18.05
2019-05-13T14:23:09.377Z,16.8
2019-05-13T14:24:21.572Z,17.57
2019-05-13T14:25:32.431Z,17.37
2019-05-13T14:26:45.923Z,17.47
2019-05-13T14:27:58.702Z,17.47
2019-05-13T14:29:09.393Z,17.58
2019-05-13T14:30:21.451Z,16.89
